sensor_id;sensor_type;location;lat;lon;timestamp;temperature;humidity
26599;DHT22;14240;51.064;16.612;2023-07-20T00:01:28;18.10;99.90
26599;DHT22;14240;51.064;16.612;2023-07-20T00:03:54;18.10;99.90
26599;DHT22;14240;51.064;16.612;2023-07-20T00:06:24;18.10;99.90
26599;DHT22;14240;51.064;16.612;2023-07-20T00:08:50;18.00;99.90
26599;DHT22;14240;51.064;16.612;2023-07-20T00:11:16;18.00;99.90
26599;DHT22;14240;51.064;16.612;2023-07-20T00:13:42;17.90;99.90
26599;DHT22;14240;51.064;16.612;2023-07-20T00:16:08;17.90;99.90
26599;DHT22;14240;51.064;16.612;2023-07-20T00:18:33;17.80;99.90
26599;DHT22;14240;51.064;16.612;2023-07-20T00:20:59;17.80;99.90
26599;DHT22;14240;51.064;16.612;2023-07-20T00:23:28;17.80;99.90
26599;DHT22;14240;51.064;16.612;2023-07-20T00:25:53;17.80;99.90
26599;DHT22;14240;51.064;16.612;2023-07-20T00:28:19;17.70;99.90
26599;DHT22;14240;51.064;16.612;2023-07-20T00:30:45;17.70;99.90
26599;DHT22;14240;51.064;16.612;2023-07-20T00:33:11;17.70;99.90
26599;DHT22;14240;51.064;16.612;2023-07-20T00:35:38;17.70;99.90
26599;DHT22;14240;51.064;16.612;2023-07-20T00:38:04;17.70;99.90
26599;DHT22;14240;51.064;16.612;2023-07-20T00:40:38;17.70;99.90
26599;DHT22;14240;51.064;16.612;2023-07-20T00:43:04;17.70;99.90
26599;DHT22;14240;51.064;16.612;2023-07-20T00:45:30;17.70;99.90
26599;DHT22;14240;51.064;16.612;2023-07-20T00:47:56;17.70;99.90
26599;DHT22;14240;51.064;16.612;2023-07-20T00:50:24;17.70;99.90
26599;DHT22;14240;51.064;16.612;2023-07-20T00:52:49;17.70;99.90
26599;DHT22;14240;51.064;16.612;2023-07-20T00:55:15;17.70;99.90
26599;DHT22;14240;51.064;16.612;2023-07-20T00:57:41;17.70;99.90
26599;DHT22;14240;51.064;16.612;2023-07-20T01:00:07;17.70;99.90
26599;DHT22;14240;51.064;16.612;2023-07-20T01:02:33;17.70;99.90
26599;DHT22;14240;51.064;16.612;2023-07-20T01:04:59;17.70;99.90
26599;DHT22;14240;51.064;16.612;2023-07-20T01:07:40;17.70;99.90
26599;DHT22;14240;51.064;16.612;2023-07-20T01:10:32;17.70;99.90
26599;DHT22;14240;51.064;16.612;2023-07-20T01:13:00;17.60;99.90
26599;DHT22;14240;51.064;16.612;2023-07-20T01:15:27;17.60;99.90
26599;DHT22;14240;51.064;16.612;2023-07-20T01:17:52;17.60;99.90
26599;DHT22;14240;51.064;16.612;2023-07-20T01:20:20;17.60;99.90
26599;DHT22;14240;51.064;16.612;2023-07-20T01:25:57;17.60;99.90
26599;DHT22;14240;51.064;16.612;2023-07-20T01:31:30;17.50;99.90
26599;DHT22;14240;51.064;16.612;2023-07-20T01:33:58;17.50;99.90
26599;DHT22;14240;51.064;16.612;2023-07-20T01:36:28;17.50;99.90
26599;DHT22;14240;51.064;16.612;2023-07-20T01:38:54;17.50;99.90
26599;DHT22;14240;51.064;16.612;2023-07-20T01:41:21;17.50;99.90
26599;DHT22;14240;51.064;16.612;2023-07-20T01:43:47;17.50;99.90
26599;DHT22;14240;51.064;16.612;2023-07-20T01:46:13;17.50;99.90
26599;DHT22;14240;51.064;16.612;2023-07-20T01:48:38;17.40;99.90
26599;DHT22;14240;51.064;16.612;2023-07-20T01:51:04;17.40;99.90
26599;DHT22;14240;51.064;16.612;2023-07-20T01:53:29;17.40;99.90
26599;DHT22;14240;51.064;16.612;2023-07-20T01:55:56;17.40;99.90
26599;DHT22;14240;51.064;16.612;2023-07-20T01:58:21;17.40;99.90
26599;DHT22;14240;51.064;16.612;2023-07-20T02:00:47;17.40;99.90
26599;DHT22;14240;51.064;16.612;2023-07-20T02:03:13;17.40;99.90
26599;DHT22;14240;51.064;16.612;2023-07-20T02:05:39;17.30;99.90
26599;DHT22;14240;51.064;16.612;2023-07-20T02:08:04;17.30;99.90
26599;DHT22;14240;51.064;16.612;2023-07-20T02:10:30;17.20;99.90
26599;DHT22;14240;51.064;16.612;2023-07-20T02:12:56;17.20;99.90
26599;DHT22;14240;51.064;16.612;2023-07-20T02:15:22;17.20;99.90
26599;DHT22;14240;51.064;16.612;2023-07-20T02:17:47;17.10;99.90
26599;DHT22;14240;51.064;16.612;2023-07-20T02:20:13;17.10;99.90
26599;DHT22;14240;51.064;16.612;2023-07-20T02:22:39;17.10;99.90
26599;DHT22;14240;51.064;16.612;2023-07-20T02:25:06;17.00;99.90
26599;DHT22;14240;51.064;16.612;2023-07-20T02:27:33;17.00;99.90
26599;DHT22;14240;51.064;16.612;2023-07-20T02:29:58;16.90;99.90
26599;DHT22;14240;51.064;16.612;2023-07-20T02:32:24;16.90;99.90
26599;DHT22;14240;51.064;16.612;2023-07-20T02:34:50;16.80;99.90
26599;DHT22;14240;51.064;16.612;2023-07-20T02:37:16;16.80;99.90
26599;DHT22;14240;51.064;16.612;2023-07-20T02:39:42;16.80;99.90
26599;DHT22;14240;51.064;16.612;2023-07-20T02:42:07;16.70;99.90
26599;DHT22;14240;51.064;16.612;2023-07-20T02:44:33;16.70;99.90
26599;DHT22;14240;51.064;16.612;2023-07-20T02:46:59;16.70;99.90
26599;DHT22;14240;51.064;16.612;2023-07-20T02:49:24;16.70;99.90
26599;DHT22;14240;51.064;16.612;2023-07-20T02:51:50;16.60;99.90
26599;DHT22;14240;51.064;16.612;2023-07-20T02:54:16;16.60;99.90
26599;DHT22;14240;51.064;16.612;2023-07-20T02:56:41;16.60;99.90
26599;DHT22;14240;51.064;16.612;2023-07-20T02:59:08;16.60;99.90
26599;DHT22;14240;51.064;16.612;2023-07-20T03:01:34;16.50;99.90
26599;DHT22;14240;51.064;16.612;2023-07-20T03:03:59;16.50;99.90
26599;DHT22;14240;51.064;16.612;2023-07-20T03:06:25;16.50;99.90
26599;DHT22;14240;51.064;16.612;2023-07-20T03:08:50;16.50;99.90
26599;DHT22;14240;51.064;16.612;2023-07-20T03:11:19;16.50;99.90
26599;DHT22;14240;51.064;16.612;2023-07-20T03:13:45;16.60;99.90
26599;DHT22;14240;51.064;16.612;2023-07-20T03:16:12;16.50;99.90
26599;DHT22;14240;51.064;16.612;2023-07-20T03:18:40;16.60;99.90
26599;DHT22;14240;51.064;16.612;2023-07-20T03:21:08;16.60;99.90
26599;DHT22;14240;51.064;16.612;2023-07-20T03:23:34;16.60;99.90
26599;DHT22;14240;51.064;16.612;2023-07-20T03:26:00;16.60;99.90
26599;DHT22;14240;51.064;16.612;2023-07-20T03:28:26;16.70;99.90
26599;DHT22;14240;51.064;16.612;2023-07-20T03:30:55;16.70;99.90
26599;DHT22;14240;51.064;16.612;2023-07-20T03:33:31;16.70;99.90
26599;DHT22;14240;51.064;16.612;2023-07-20T03:35:56;16.70;99.90
26599;DHT22;14240;51.064;16.612;2023-07-20T03:38:23;16.70;99.90
26599;DHT22;14240;51.064;16.612;2023-07-20T03:40:56;16.80;99.90
26599;DHT22;14240;51.064;16.612;2023-07-20T03:43:26;16.70;99.90
26599;DHT22;14240;51.064;16.612;2023-07-20T03:45:52;16.70;99.90
26599;DHT22;14240;51.064;16.612;2023-07-20T03:48:20;16.80;99.90
26599;DHT22;14240;51.064;16.612;2023-07-20T03:50:48;16.80;99.90
26599;DHT22;14240;51.064;16.612;2023-07-20T03:53:14;16.80;99.90
26599;DHT22;14240;51.064;16.612;2023-07-20T03:55:41;16.90;99.90
26599;DHT22;14240;51.064;16.612;2023-07-20T03:58:07;16.90;99.90
26599;DHT22;14240;51.064;16.612;2023-07-20T04:00:34;16.90;99.90
26599;DHT22;14240;51.064;16.612;2023-07-20T04:03:00;17.00;99.90
26599;DHT22;14240;51.064;16.612;2023-07-20T04:05:26;17.00;99.90
26599;DHT22;14240;51.064;16.612;2023-07-20T04:07:52;17.00;99.90
26599;DHT22;14240;51.064;16.612;2023-07-20T04:10:18;17.00;99.90
26599;DHT22;14240;51.064;16.612;2023-07-20T04:12:44;17.10;99.90
26599;DHT22;14240;51.064;16.612;2023-07-20T04:15:10;17.10;99.90
26599;DHT22;14240;51.064;16.612;2023-07-20T04:17:36;17.10;99.90
26599;DHT22;14240;51.064;16.612;2023-07-20T04:20:02;17.10;99.90
26599;DHT22;14240;51.064;16.612;2023-07-20T04:22:28;17.10;99.90
26599;DHT22;14240;51.064;16.612;2023-07-20T04:24:54;17.10;99.90
26599;DHT22;14240;51.064;16.612;2023-07-20T04:27:19;17.20;99.90
26599;DHT22;14240;51.064;16.612;2023-07-20T04:29:45;17.20;99.90
26599;DHT22;14240;51.064;16.612;2023-07-20T04:32:10;17.10;99.90
26599;DHT22;14240;51.064;16.612;2023-07-20T04:34:36;17.20;99.90
26599;DHT22;14240;51.064;16.612;2023-07-20T04:37:05;17.20;99.90
26599;DHT22;14240;51.064;16.612;2023-07-20T04:39:31;17.20;99.90
26599;DHT22;14240;51.064;16.612;2023-07-20T04:41:57;17.20;99.90
26599;DHT22;14240;51.064;16.612;2023-07-20T04:44:23;17.20;99.90
26599;DHT22;14240;51.064;16.612;2023-07-20T04:46:48;17.20;99.90
26599;DHT22;14240;51.064;16.612;2023-07-20T04:49:14;17.30;99.90
26599;DHT22;14240;51.064;16.612;2023-07-20T04:51:40;17.30;99.90
26599;DHT22;14240;51.064;16.612;2023-07-20T04:54:05;17.30;99.90
26599;DHT22;14240;51.064;16.612;2023-07-20T04:56:31;17.40;99.90
26599;DHT22;14240;51.064;16.612;2023-07-20T04:58:56;17.40;99.90
26599;DHT22;14240;51.064;16.612;2023-07-20T05:01:23;17.40;99.90
26599;DHT22;14240;51.064;16.612;2023-07-20T05:03:49;17.50;99.90
26599;DHT22;14240;51.064;16.612;2023-07-20T05:06:15;17.50;99.90
26599;DHT22;14240;51.064;16.612;2023-07-20T05:08:41;17.50;99.90
26599;DHT22;14240;51.064;16.612;2023-07-20T05:11:06;17.50;99.90
26599;DHT22;14240;51.064;16.612;2023-07-20T05:13:33;17.50;99.90
26599;DHT22;14240;51.064;16.612;2023-07-20T05:15:58;17.60;99.90
26599;DHT22;14240;51.064;16.612;2023-07-20T05:18:24;17.60;99.90
26599;DHT22;14240;51.064;16.612;2023-07-20T05:20:50;17.50;99.90
26599;DHT22;14240;51.064;16.612;2023-07-20T05:23:19;17.60;99.90
26599;DHT22;14240;51.064;16.612;2023-07-20T05:25:55;17.60;99.90
26599;DHT22;14240;51.064;16.612;2023-07-20T05:28:22;18.00;99.90
26599;DHT22;14240;51.064;16.612;2023-07-20T05:30:47;17.70;99.90
26599;DHT22;14240;51.064;16.612;2023-07-20T05:33:13;17.80;99.90
26599;DHT22;14240;51.064;16.612;2023-07-20T05:35:39;17.80;99.90
26599;DHT22;14240;51.064;16.612;2023-07-20T05:38:04;17.90;99.90
26599;DHT22;14240;51.064;16.612;2023-07-20T05:40:31;18.00;99.90
26599;DHT22;14240;51.064;16.612;2023-07-20T05:42:57;18.10;99.90
26599;DHT22;14240;51.064;16.612;2023-07-20T05:45:24;18.20;99.90
26599;DHT22;14240;51.064;16.612;2023-07-20T05:47:49;18.30;99.90
26599;DHT22;14240;51.064;16.612;2023-07-20T05:50:15;18.40;99.90
26599;DHT22;14240;51.064;16.612;2023-07-20T05:52:41;18.40;99.90
26599;DHT22;14240;51.064;16.612;2023-07-20T05:55:07;18.40;99.90
26599;DHT22;14240;51.064;16.612;2023-07-20T05:57:33;18.50;99.90
26599;DHT22;14240;51.064;16.612;2023-07-20T05:59:59;18.50;99.90
26599;DHT22;14240;51.064;16.612;2023-07-20T06:02:25;18.60;99.90
26599;DHT22;14240;51.064;16.612;2023-07-20T06:04:50;18.70;99.90
26599;DHT22;14240;51.064;16.612;2023-07-20T06:07:16;18.70;99.90
26599;DHT22;14240;51.064;16.612;2023-07-20T06:09:41;18.80;99.90
26599;DHT22;14240;51.064;16.612;2023-07-20T06:12:08;18.90;99.90
26599;DHT22;14240;51.064;16.612;2023-07-20T06:14:34;19.00;99.90
26599;DHT22;14240;51.064;16.612;2023-07-20T06:16:59;19.00;99.90
26599;DHT22;14240;51.064;16.612;2023-07-20T06:19:25;19.10;99.90
26599;DHT22;14240;51.064;16.612;2023-07-20T06:21:50;19.00;99.90
26599;DHT22;14240;51.064;16.612;2023-07-20T06:24:17;19.00;99.90
26599;DHT22;14240;51.064;16.612;2023-07-20T06:26:43;18.90;99.90
26599;DHT22;14240;51.064;16.612;2023-07-20T06:29:08;19.00;99.90
26599;DHT22;14240;51.064;16.612;2023-07-20T06:31:35;19.10;99.90
26599;DHT22;14240;51.064;16.612;2023-07-20T06:34:01;19.30;99.90
26599;DHT22;14240;51.064;16.612;2023-07-20T06:36:26;19.40;99.90
26599;DHT22;14240;51.064;16.612;2023-07-20T06:38:53;19.50;99.90
26599;DHT22;14240;51.064;16.612;2023-07-20T06:41:18;19.50;99.90
26599;DHT22;14240;51.064;16.612;2023-07-20T06:43:45;19.50;99.90
26599;DHT22;14240;51.064;16.612;2023-07-20T06:46:10;19.50;99.90
26599;DHT22;14240;51.064;16.612;2023-07-20T06:48:36;19.50;99.90
26599;DHT22;14240;51.064;16.612;2023-07-20T06:51:02;19.50;99.90
26599;DHT22;14240;51.064;16.612;2023-07-20T06:53:28;19.60;99.90
26599;DHT22;14240;51.064;16.612;2023-07-20T06:55:54;19.70;99.90
26599;DHT22;14240;51.064;16.612;2023-07-20T06:58:19;19.70;99.90
26599;DHT22;14240;51.064;16.612;2023-07-20T07:00:47;19.70;99.90
26599;DHT22;14240;51.064;16.612;2023-07-20T07:03:12;19.70;99.90
26599;DHT22;14240;51.064;16.612;2023-07-20T07:05:38;19.70;99.90
26599;DHT22;14240;51.064;16.612;2023-07-20T07:08:05;19.80;99.90
26599;DHT22;14240;51.064;16.612;2023-07-20T07:10:31;19.80;99.90
26599;DHT22;14240;51.064;16.612;2023-07-20T07:12:56;19.90;99.90
26599;DHT22;14240;51.064;16.612;2023-07-20T07:15:22;19.90;99.90
26599;DHT22;14240;51.064;16.612;2023-07-20T07:17:47;20.00;99.90
26599;DHT22;14240;51.064;16.612;2023-07-20T07:20:13;20.00;99.90
26599;DHT22;14240;51.064;16.612;2023-07-20T07:22:39;20.10;99.90
26599;DHT22;14240;51.064;16.612;2023-07-20T07:25:05;20.10;99.90
26599;DHT22;14240;51.064;16.612;2023-07-20T07:27:30;20.10;99.90
26599;DHT22;14240;51.064;16.612;2023-07-20T07:29:56;20.10;99.90
26599;DHT22;14240;51.064;16.612;2023-07-20T07:32:22;20.20;99.90
26599;DHT22;14240;51.064;16.612;2023-07-20T07:34:47;20.30;99.90
26599;DHT22;14240;51.064;16.612;2023-07-20T07:37:14;20.30;99.90
26599;DHT22;14240;51.064;16.612;2023-07-20T07:39:39;20.30;99.90
26599;DHT22;14240;51.064;16.612;2023-07-20T07:42:05;20.40;99.90
26599;DHT22;14240;51.064;16.612;2023-07-20T07:44:31;20.40;99.90
26599;DHT22;14240;51.064;16.612;2023-07-20T07:46:57;20.50;99.90
26599;DHT22;14240;51.064;16.612;2023-07-20T07:49:23;20.40;99.90
26599;DHT22;14240;51.064;16.612;2023-07-20T07:51:48;20.40;99.90
26599;DHT22;14240;51.064;16.612;2023-07-20T07:54:14;20.30;99.90
26599;DHT22;14240;51.064;16.612;2023-07-20T07:56:40;20.30;99.90
26599;DHT22;14240;51.064;16.612;2023-07-20T07:59:06;20.40;99.90
26599;DHT22;14240;51.064;16.612;2023-07-20T08:01:32;20.50;99.90
26599;DHT22;14240;51.064;16.612;2023-07-20T08:03:58;20.70;99.90
26599;DHT22;14240;51.064;16.612;2023-07-20T08:06:23;20.80;99.90
26599;DHT22;14240;51.064;16.612;2023-07-20T08:08:50;20.90;99.90
26599;DHT22;14240;51.064;16.612;2023-07-20T08:11:15;21.00;99.90
26599;DHT22;14240;51.064;16.612;2023-07-20T08:13:43;21.00;99.90
26599;DHT22;14240;51.064;16.612;2023-07-20T08:16:09;21.00;99.90
26599;DHT22;14240;51.064;16.612;2023-07-20T08:18:34;21.00;99.90
26599;DHT22;14240;51.064;16.612;2023-07-20T08:21:00;20.90;99.90
26599;DHT22;14240;51.064;16.612;2023-07-20T08:23:26;20.90;99.90
26599;DHT22;14240;51.064;16.612;2023-07-20T08:25:53;20.80;99.90
26599;DHT22;14240;51.064;16.612;2023-07-20T08:28:19;20.90;99.90
26599;DHT22;14240;51.064;16.612;2023-07-20T08:30:49;21.00;99.90
26599;DHT22;14240;51.064;16.612;2023-07-20T08:33:16;21.20;99.90
26599;DHT22;14240;51.064;16.612;2023-07-20T08:35:43;21.40;99.90
26599;DHT22;14240;51.064;16.612;2023-07-20T08:38:08;21.50;99.90
26599;DHT22;14240;51.064;16.612;2023-07-20T08:40:39;21.40;99.90
26599;DHT22;14240;51.064;16.612;2023-07-20T08:43:05;21.50;99.90
26599;DHT22;14240;51.064;16.612;2023-07-20T08:45:33;21.50;99.90
26599;DHT22;14240;51.064;16.612;2023-07-20T08:48:00;21.60;99.90
26599;DHT22;14240;51.064;16.612;2023-07-20T08:50:30;21.70;99.90
26599;DHT22;14240;51.064;16.612;2023-07-20T08:52:58;21.80;99.90
26599;DHT22;14240;51.064;16.612;2023-07-20T08:55:26;21.90;99.90
26599;DHT22;14240;51.064;16.612;2023-07-20T08:57:57;22.00;99.90
26599;DHT22;14240;51.064;16.612;2023-07-20T09:00:23;22.00;99.90
26599;DHT22;14240;51.064;16.612;2023-07-20T09:02:52;22.10;99.90
26599;DHT22;14240;51.064;16.612;2023-07-20T09:05:19;22.20;99.90
26599;DHT22;14240;51.064;16.612;2023-07-20T09:07:45;22.40;99.90
26599;DHT22;14240;51.064;16.612;2023-07-20T09:10:11;22.50;99.90
26599;DHT22;14240;51.064;16.612;2023-07-20T09:12:42;22.60;99.90
26599;DHT22;14240;51.064;16.612;2023-07-20T09:15:10;22.60;99.90
26599;DHT22;14240;51.064;16.612;2023-07-20T09:17:36;22.70;99.90
26599;DHT22;14240;51.064;16.612;2023-07-20T09:20:07;22.70;99.90
26599;DHT22;14240;51.064;16.612;2023-07-20T09:22:36;22.70;99.90
26599;DHT22;14240;51.064;16.612;2023-07-20T09:25:07;22.80;99.90
26599;DHT22;14240;51.064;16.612;2023-07-20T09:27:40;22.80;99.90
26599;DHT22;14240;51.064;16.612;2023-07-20T09:30:06;22.90;99.90
26599;DHT22;14240;51.064;16.612;2023-07-20T09:35:29;23.10;99.90
26599;DHT22;14240;51.064;16.612;2023-07-20T09:38:01;23.10;99.90
26599;DHT22;14240;51.064;16.612;2023-07-20T09:40:27;23.10;99.90
26599;DHT22;14240;51.064;16.612;2023-07-20T09:42:54;23.30;99.90
26599;DHT22;14240;51.064;16.612;2023-07-20T09:45:30;23.40;99.90
26599;DHT22;14240;51.064;16.612;2023-07-20T09:48:06;23.60;99.90
26599;DHT22;14240;51.064;16.612;2023-07-20T09:50:33;23.70;99.90
26599;DHT22;14240;51.064;16.612;2023-07-20T09:53:00;23.80;99.90
26599;DHT22;14240;51.064;16.612;2023-07-20T09:55:29;23.90;99.90
26599;DHT22;14240;51.064;16.612;2023-07-20T09:57:56;23.90;99.90
26599;DHT22;14240;51.064;16.612;2023-07-20T10:00:22;24.00;99.50
26599;DHT22;14240;51.064;16.612;2023-07-20T10:02:51;24.00;99.20
26599;DHT22;14240;51.064;16.612;2023-07-20T10:05:17;24.00;99.20
26599;DHT22;14240;51.064;16.612;2023-07-20T10:07:47;24.10;99.00
26599;DHT22;14240;51.064;16.612;2023-07-20T10:10:15;24.10;98.80
26599;DHT22;14240;51.064;16.612;2023-07-20T10:12:45;24.10;98.40
26599;DHT22;14240;51.064;16.612;2023-07-20T10:15:18;24.10;98.50
26599;DHT22;14240;51.064;16.612;2023-07-20T10:17:57;24.10;98.90
26599;DHT22;14240;51.064;16.612;2023-07-20T10:20:24;24.20;98.50
26599;DHT22;14240;51.064;16.612;2023-07-20T10:22:53;24.20;98.50
26599;DHT22;14240;51.064;16.612;2023-07-20T10:25:20;24.30;99.30
26599;DHT22;14240;51.064;16.612;2023-07-20T10:27:48;24.40;98.50
26599;DHT22;14240;51.064;16.612;2023-07-20T10:30:14;24.60;97.90
26599;DHT22;14240;51.064;16.612;2023-07-20T10:32:41;24.70;97.10
26599;DHT22;14240;51.064;16.612;2023-07-20T10:35:14;24.80;97.30
26599;DHT22;14240;51.064;16.612;2023-07-20T10:37:46;24.90;97.10
26599;DHT22;14240;51.064;16.612;2023-07-20T10:42:51;24.80;96.90
26599;DHT22;14240;51.064;16.612;2023-07-20T10:45:21;24.80;96.30
26599;DHT22;14240;51.064;16.612;2023-07-20T10:47:46;24.80;96.00
26599;DHT22;14240;51.064;16.612;2023-07-20T10:50:12;24.80;95.90
26599;DHT22;14240;51.064;16.612;2023-07-20T10:52:40;24.70;95.90
26599;DHT22;14240;51.064;16.612;2023-07-20T10:55:14;24.70;96.20
26599;DHT22;14240;51.064;16.612;2023-07-20T10:57:40;24.80;96.70
26599;DHT22;14240;51.064;16.612;2023-07-20T11:00:13;24.90;96.80
26599;DHT22;14240;51.064;16.612;2023-07-20T11:02:47;25.00;96.20
26599;DHT22;14240;51.064;16.612;2023-07-20T11:05:38;25.20;96.10
26599;DHT22;14240;51.064;16.612;2023-07-20T11:08:09;25.30;94.80
26599;DHT22;14240;51.064;16.612;2023-07-20T11:10:35;25.30;94.80
26599;DHT22;14240;51.064;16.612;2023-07-20T11:13:21;25.30;94.30
26599;DHT22;14240;51.064;16.612;2023-07-20T11:16:08;25.20;93.80
26599;DHT22;14240;51.064;16.612;2023-07-20T11:18:34;25.00;94.50
26599;DHT22;14240;51.064;16.612;2023-07-20T11:21:07;24.80;95.00
26599;DHT22;14240;51.064;16.612;2023-07-20T11:23:38;24.50;95.70
26599;DHT22;14240;51.064;16.612;2023-07-20T11:26:04;24.20;96.40
26599;DHT22;14240;51.064;16.612;2023-07-20T11:28:30;24.10;96.10
26599;DHT22;14240;51.064;16.612;2023-07-20T11:30:55;23.90;96.40
26599;DHT22;14240;51.064;16.612;2023-07-20T11:33:21;23.90;96.40
26599;DHT22;14240;51.064;16.612;2023-07-20T11:35:48;23.80;96.30
26599;DHT22;14240;51.064;16.612;2023-07-20T11:38:16;23.70;96.00
26599;DHT22;14240;51.064;16.612;2023-07-20T11:40:46;23.50;95.80
26599;DHT22;14240;51.064;16.612;2023-07-20T11:43:12;23.40;95.70
26599;DHT22;14240;51.064;16.612;2023-07-20T11:45:39;23.40;95.90
26599;DHT22;14240;51.064;16.612;2023-07-20T11:48:05;23.30;96.10
26599;DHT22;14240;51.064;16.612;2023-07-20T11:50:31;23.30;96.20
26599;DHT22;14240;51.064;16.612;2023-07-20T11:52:57;23.20;96.00
26599;DHT22;14240;51.064;16.612;2023-07-20T11:55:23;23.10;96.00
26599;DHT22;14240;51.064;16.612;2023-07-20T11:58:05;23.10;96.10
26599;DHT22;14240;51.064;16.612;2023-07-20T12:00:32;23.00;96.30
26599;DHT22;14240;51.064;16.612;2023-07-20T12:02:58;22.90;97.00
26599;DHT22;14240;51.064;16.612;2023-07-20T12:05:24;22.90;97.20
26599;DHT22;14240;51.064;16.612;2023-07-20T12:07:50;22.80;97.40
26599;DHT22;14240;51.064;16.612;2023-07-20T12:10:28;22.80;97.40
26599;DHT22;14240;51.064;16.612;2023-07-20T12:12:54;23.20;97.60
26599;DHT22;14240;51.064;16.612;2023-07-20T12:15:20;22.70;97.70
26599;DHT22;14240;51.064;16.612;2023-07-20T12:17:50;22.70;97.90
26599;DHT22;14240;51.064;16.612;2023-07-20T12:23:09;22.70;97.70
26599;DHT22;14240;51.064;16.612;2023-07-20T12:25:40;22.70;97.10
26599;DHT22;14240;51.064;16.612;2023-07-20T12:28:24;22.70;97.70
26599;DHT22;14240;51.064;16.612;2023-07-20T12:30:51;22.70;98.70
26599;DHT22;14240;51.064;16.612;2023-07-20T12:33:22;22.80;99.50
26599;DHT22;14240;51.064;16.612;2023-07-20T12:35:48;22.90;99.00
26599;DHT22;14240;51.064;16.612;2023-07-20T12:38:15;23.00;97.50
26599;DHT22;14240;51.064;16.612;2023-07-20T12:40:41;23.00;96.80
26599;DHT22;14240;51.064;16.612;2023-07-20T12:43:07;23.00;96.80
26599;DHT22;14240;51.064;16.612;2023-07-20T12:45:33;23.00;97.00
26599;DHT22;14240;51.064;16.612;2023-07-20T12:47:59;23.00;97.10
26599;DHT22;14240;51.064;16.612;2023-07-20T12:50:26;23.10;97.40
26599;DHT22;14240;51.064;16.612;2023-07-20T12:52:52;23.30;97.30
26599;DHT22;14240;51.064;16.612;2023-07-20T12:55:17;23.40;96.60
26599;DHT22;14240;51.064;16.612;2023-07-20T12:57:43;23.50;96.60
26599;DHT22;14240;51.064;16.612;2023-07-20T13:00:10;23.50;96.20
26599;DHT22;14240;51.064;16.612;2023-07-20T13:02:37;23.60;96.90
26599;DHT22;14240;51.064;16.612;2023-07-20T13:05:03;23.70;96.80
26599;DHT22;14240;51.064;16.612;2023-07-20T13:07:34;23.80;95.90
26599;DHT22;14240;51.064;16.612;2023-07-20T13:10:01;23.90;95.50
26599;DHT22;14240;51.064;16.612;2023-07-20T13:12:31;24.00;94.90
26599;DHT22;14240;51.064;16.612;2023-07-20T13:14:57;24.00;94.70
26599;DHT22;14240;51.064;16.612;2023-07-20T13:17:26;24.00;94.50
26599;DHT22;14240;51.064;16.612;2023-07-20T13:19:51;23.90;94.70
26599;DHT22;14240;51.064;16.612;2023-07-20T13:22:17;24.00;94.90
26599;DHT22;14240;51.064;16.612;2023-07-20T13:24:45;24.00;94.90
26599;DHT22;14240;51.064;16.612;2023-07-20T13:27:20;24.00;95.20
26599;DHT22;14240;51.064;16.612;2023-07-20T13:29:45;24.10;95.00
26599;DHT22;14240;51.064;16.612;2023-07-20T13:32:15;24.10;95.10
26599;DHT22;14240;51.064;16.612;2023-07-20T13:34:41;24.20;95.10
26599;DHT22;14240;51.064;16.612;2023-07-20T13:37:06;24.30;95.30
26599;DHT22;14240;51.064;16.612;2023-07-20T13:39:32;24.30;95.30
26599;DHT22;14240;51.064;16.612;2023-07-20T13:41:58;24.40;94.80
26599;DHT22;14240;51.064;16.612;2023-07-20T13:44:23;24.40;94.80
26599;DHT22;14240;51.064;16.612;2023-07-20T13:46:49;24.50;94.80
26599;DHT22;14240;51.064;16.612;2023-07-20T13:49:15;24.50;94.50
26599;DHT22;14240;51.064;16.612;2023-07-20T13:51:43;24.50;94.20
26599;DHT22;14240;51.064;16.612;2023-07-20T13:54:10;24.50;94.30
26599;DHT22;14240;51.064;16.612;2023-07-20T13:56:37;24.50;93.70
26599;DHT22;14240;51.064;16.612;2023-07-20T13:59:02;24.60;93.90
26599;DHT22;14240;51.064;16.612;2023-07-20T14:01:28;24.60;92.80
26599;DHT22;14240;51.064;16.612;2023-07-20T14:03:55;24.60;92.70
26599;DHT22;14240;51.064;16.612;2023-07-20T14:06:20;24.70;92.10
26599;DHT22;14240;51.064;16.612;2023-07-20T14:08:46;24.80;91.90
26599;DHT22;14240;51.064;16.612;2023-07-20T14:11:13;24.80;92.00
26599;DHT22;14240;51.064;16.612;2023-07-20T14:13:39;24.80;92.40
26599;DHT22;14240;51.064;16.612;2023-07-20T14:16:05;24.90;91.80
26599;DHT22;14240;51.064;16.612;2023-07-20T14:18:30;25.00;91.50
26599;DHT22;14240;51.064;16.612;2023-07-20T14:20:56;25.10;90.50
26599;DHT22;14240;51.064;16.612;2023-07-20T14:23:22;25.20;89.80
26599;DHT22;14240;51.064;16.612;2023-07-20T14:25:48;25.20;89.50
26599;DHT22;14240;51.064;16.612;2023-07-20T14:28:14;25.20;89.20
26599;DHT22;14240;51.064;16.612;2023-07-20T14:30:40;25.30;89.70
26599;DHT22;14240;51.064;16.612;2023-07-20T14:33:07;25.30;89.40
26599;DHT22;14240;51.064;16.612;2023-07-20T14:35:33;25.30;89.90
26599;DHT22;14240;51.064;16.612;2023-07-20T14:37:59;25.30;89.80
26599;DHT22;14240;51.064;16.612;2023-07-20T14:40:25;25.30;89.70
26599;DHT22;14240;51.064;16.612;2023-07-20T14:42:51;25.30;89.00
26599;DHT22;14240;51.064;16.612;2023-07-20T14:45:17;25.40;88.10
26599;DHT22;14240;51.064;16.612;2023-07-20T14:47:43;25.50;87.90
26599;DHT22;14240;51.064;16.612;2023-07-20T14:50:09;25.50;87.90
26599;DHT22;14240;51.064;16.612;2023-07-20T14:52:35;25.50;86.80
26599;DHT22;14240;51.064;16.612;2023-07-20T14:55:01;25.50;86.30
26599;DHT22;14240;51.064;16.612;2023-07-20T14:57:26;25.50;86.90
26599;DHT22;14240;51.064;16.612;2023-07-20T14:59:52;25.40;88.00
26599;DHT22;14240;51.064;16.612;2023-07-20T15:02:18;25.40;88.50
26599;DHT22;14240;51.064;16.612;2023-07-20T15:04:48;25.40;88.90
26599;DHT22;14240;51.064;16.612;2023-07-20T15:07:18;25.30;88.70
26599;DHT22;14240;51.064;16.612;2023-07-20T15:09:44;25.30;89.30
26599;DHT22;14240;51.064;16.612;2023-07-20T15:12:10;25.30;89.00
26599;DHT22;14240;51.064;16.612;2023-07-20T15:14:40;25.40;88.40
26599;DHT22;14240;51.064;16.612;2023-07-20T15:17:07;25.30;88.50
26599;DHT22;14240;51.064;16.612;2023-07-20T15:19:32;25.30;88.40
26599;DHT22;14240;51.064;16.612;2023-07-20T15:21:59;25.30;88.40
26599;DHT22;14240;51.064;16.612;2023-07-20T15:24:25;25.30;87.80
26599;DHT22;14240;51.064;16.612;2023-07-20T15:26:51;25.30;87.10
26599;DHT22;14240;51.064;16.612;2023-07-20T15:29:16;25.30;87.10